Time;durP1;ratioP1;P1;durP2;ratioP2;P2;SDS_P1;SDS_P2;PMS_P1;PMS_P2;Temp;Humidity;BMP_temperature;BMP_pressure;BME280_temperature;BME280_humidity;BME280_pressure;Samples;Min_cycle;Max_cycle;Signal;HPM_P1;HPM_P2
2022/08/29 00:01:30;;;;;;;7.53;2.15;;;24.50;99.90;;;;;;5002951;28;20102;-73
2022/08/29 00:03:56;;;;;;;5.35;2.10;;;24.50;99.90;;;;;;5004572;28;20181;-74
2022/08/29 00:06:23;;;;;;;5.32;1.70;;;24.50;99.90;;;;;;4992453;28;20034;-74
2022/08/29 00:08:49;;;;;;;3.60;2.00;;;24.40;99.90;;;;;;5002875;28;20098;-74
2022/08/29 00:11:15;;;;;;;6.95;2.33;;;24.30;99.90;;;;;;5002874;28;20483;-73
2022/08/29 00:13:41;;;;;;;5.53;2.10;;;24.30;99.90;;;;;;5004376;28;20050;-74
2022/08/29 00:16:07;;;;;;;4.97;2.28;;;24.30;99.90;;;;;;5001291;28;20041;-73
2022/08/29 00:18:35;;;;;;;3.70;2.03;;;24.30;99.90;;;;;;5000337;28;20062;-74
2022/08/29 00:21:02;;;;;;;3.17;1.60;;;24.40;99.90;;;;;;5007405;28;20049;-73
2022/08/29 00:23:30;;;;;;;3.88;1.63;;;24.40;99.90;;;;;;5001249;28;20030;-73
2022/08/29 00:25:56;;;;;;;3.15;1.85;;;24.50;99.90;;;;;;4984793;28;20049;-73
2022/08/29 00:28:22;;;;;;;6.82;2.03;;;24.60;99.90;;;;;;5001340;28;20136;-75
2022/08/29 00:30:48;;;;;;;5.35;1.90;;;24.50;99.90;;;;;;4988425;28;20030;-75
2022/08/29 00:33:15;;;;;;;2.65;1.42;;;24.50;99.90;;;;;;5000846;28;20092;-72
2022/08/29 00:35:45;;;;;;;5.68;2.60;;;24.50;99.90;;;;;;4980933;28;20128;-73
2022/08/29 00:38:14;;;;;;;5.38;2.20;;;24.40;99.90;;;;;;4982022;28;20735;-75
2022/08/29 00:40:45;;;;;;;2.97;1.92;;;24.30;99.90;;;;;;4987925;28;20045;-74
2022/08/29 00:43:11;;;;;;;3.50;2.35;;;24.30;99.90;;;;;;5002234;28;20133;-73
2022/08/29 00:45:45;;;;;;;5.40;2.20;;;24.20;99.90;;;;;;5001255;28;20038;-73
2022/08/29 00:48:14;;;;;;;6.05;2.15;;;24.20;99.90;;;;;;4998590;28;20042;-73
2022/08/29 00:50:46;;;;;;;5.90;2.20;;;24.10;99.90;;;;;;5000457;28;20116;-72
2022/08/29 00:53:15;;;;;;;5.68;2.33;;;24.10;99.90;;;;;;4999236;28;20042;-74
2022/08/29 00:55:44;;;;;;;5.25;2.63;;;24.10;99.90;;;;;;5002795;28;20038;-73
2022/08/29 00:58:26;;;;;;;6.22;2.38;;;24.00;99.90;;;;;;5001753;28;20034;-74
2022/08/29 01:00:53;;;;;;;5.07;2.40;;;23.90;99.90;;;;;;4990232;28;20034;-73
2022/08/29 01:03:19;;;;;;;4.53;2.40;;;23.90;99.90;;;;;;4994927;28;20038;-74
2022/08/29 01:05:45;;;;;;;8.65;2.67;;;24.00;99.90;;;;;;5001524;28;20037;-74
2022/08/29 01:08:11;;;;;;;10.02;2.53;;;24.00;99.90;;;;;;5001362;28;20071;-75
2022/08/29 01:13:28;;;;;;;5.38;2.80;;;24.00;99.90;;;;;;5000485;28;20048;-74
2022/08/29 01:15:56;;;;;;;10.18;3.10;;;24.00;99.90;;;;;;4990662;28;20037;-74
2022/08/29 01:18:24;;;;;;;8.18;3.20;;;24.00;99.90;;;;;;4996219;28;22845;-74
2022/08/29 01:21:13;;;;;;;6.00;2.95;;;24.00;99.90;;;;;;4983323;28;20117;-75
2022/08/29 01:23:52;;;;;;;5.88;2.70;;;24.00;99.90;;;;;;4998390;28;20038;-73
2022/08/29 01:26:18;;;;;;;9.63;3.35;;;23.90;99.90;;;;;;5002066;28;20046;-73
2022/08/29 01:28:50;;;;;;;6.70;2.70;;;23.90;99.90;;;;;;4984092;28;20470;-74
2022/08/29 01:31:20;;;;;;;5.00;2.47;;;23.90;99.90;;;;;;4998704;28;20030;-73
2022/08/29 01:33:55;;;;;;;6.63;2.42;;;23.90;99.90;;;;;;4996479;28;20030;-74
2022/08/29 01:36:31;;;;;;;8.18;1.80;;;23.90;99.90;;;;;;4975793;28;20038;-73
2022/08/29 01:38:58;;;;;;;4.53;2.13;;;24.00;99.90;;;;;;5001736;28;20041;-73
2022/08/29 01:41:25;;;;;;;3.90;2.03;;;24.00;99.90;;;;;;4984384;28;20110;-74
2022/08/29 01:43:54;;;;;;;5.03;1.90;;;24.00;99.90;;;;;;4998165;28;20034;-74
2022/08/29 01:46:23;;;;;;;6.00;2.30;;;23.90;99.90;;;;;;5000799;28;20338;-74
2022/08/29 01:48:49;;;;;;;6.03;2.38;;;23.90;99.90;;;;;;5001298;28;20039;-74
2022/08/29 01:51:16;;;;;;;5.07;1.88;;;23.80;99.90;;;;;;5000414;28;20527;-73
2022/08/29 01:53:43;;;;;;;6.15;2.20;;;23.90;99.90;;;;;;4999150;28;20088;-74
2022/08/29 01:56:20;;;;;;;3.83;1.98;;;23.80;99.90;;;;;;5000619;28;20562;-74
2022/08/29 01:58:48;;;;;;;5.45;2.08;;;23.80;99.90;;;;;;5000298;28;20497;-73
2022/08/29 02:01:21;;;;;;;6.30;2.28;;;23.90;99.90;;;;;;4982554;28;20038;-74
2022/08/29 02:03:47;;;;;;;4.22;1.85;;;23.90;99.90;;;;;;4998132;28;20034;-74
2022/08/29 02:06:13;;;;;;;4.68;1.83;;;23.90;99.90;;;;;;4997603;28;20676;-74
2022/08/29 02:08:41;;;;;;;6.43;2.45;;;23.90;99.90;;;;;;4983090;28;20045;-73
2022/08/29 02:11:09;;;;;;;7.05;2.15;;;23.80;99.90;;;;;;4997762;28;20038;-74
2022/08/29 02:13:48;;;;;;;4.55;2.00;;;23.90;99.90;;;;;;4999916;28;20116;-74
2022/08/29 02:16:15;;;;;;;3.15;1.88;;;24.10;99.90;;;;;;5003533;28;20041;-74
2022/08/29 02:18:41;;;;;;;4.63;2.03;;;24.00;99.90;;;;;;4984921;28;20050;-74
2022/08/29 02:21:07;;;;;;;5.75;2.75;;;23.90;99.90;;;;;;5000567;28;20048;-74
2022/08/29 02:23:35;;;;;;;6.53;2.28;;;24.00;99.90;;;;;;5001776;28;20990;-73
2022/08/29 02:26:01;;;;;;;6.32;2.15;;;23.90;99.90;;;;;;4996701;28;20177;-73
2022/08/29 02:28:27;;;;;;;5.40;2.28;;;23.90;99.90;;;;;;4982972;28;20030;-73
2022/08/29 02:30:53;;;;;;;7.85;2.53;;;23.80;99.90;;;;;;5001372;28;20624;-74
2022/08/29 02:33:20;;;;;;;4.35;2.25;;;23.80;99.90;;;;;;4995534;28;20487;-73
2022/08/29 02:35:47;;;;;;;6.22;3.05;;;23.90;99.90;;;;;;5001972;28;20117;-73
2022/08/29 02:38:13;;;;;;;5.10;2.80;;;23.80;99.90;;;;;;4998888;28;20056;-73
2022/08/29 02:40:40;;;;;;;5.55;2.22;;;23.70;99.90;;;;;;4998235;28;20462;-73
2022/08/29 02:43:07;;;;;;;4.15;2.08;;;23.70;99.90;;;;;;4987203;28;20478;-74
2022/08/29 02:45:36;;;;;;;6.00;2.33;;;23.70;99.90;;;;;;5002917;28;20039;-74
2022/08/29 02:48:03;;;;;;;7.97;2.70;;;23.70;99.90;;;;;;5004649;28;20042;-74
2022/08/29 02:50:29;;;;;;;5.88;2.42;;;23.60;99.90;;;;;;4999342;28;20030;-73
2022/08/29 02:52:55;;;;;;;4.28;2.35;;;23.70;99.90;;;;;;5000252;28;20049;-73
2022/08/29 02:55:22;;;;;;;5.82;2.55;;;23.70;99.90;;;;;;4980869;28;20035;-73
2022/08/29 02:57:50;;;;;;;5.97;2.58;;;23.70;99.90;;;;;;4984257;28;20073;-72
2022/08/29 03:00:20;;;;;;;6.55;2.45;;;23.70;99.90;;;;;;4979640;28;20058;-73
2022/08/29 03:02:46;;;;;;;9.80;2.97;;;23.70;99.90;;;;;;4987256;28;20034;-73
2022/08/29 03:05:14;;;;;;;5.68;2.53;;;23.60;99.90;;;;;;5006780;28;20018;-73
2022/08/29 03:07:40;;;;;;;5.80;3.03;;;23.60;99.90;;;;;;4993486;28;20034;-73
2022/08/29 03:10:06;;;;;;;5.32;2.97;;;23.50;99.90;;;;;;5007210;28;20241;-72
2022/08/29 03:12:33;;;;;;;7.13;2.85;;;23.40;99.90;;;;;;4992247;28;20030;-73
2022/08/29 03:14:59;;;;;;;7.20;3.03;;;23.40;99.90;;;;;;5000549;28;20053;-74
2022/08/29 03:17:26;;;;;;;6.03;2.58;;;23.40;99.90;;;;;;4986440;28;20034;-74
2022/08/29 03:19:54;;;;;;;7.20;2.60;;;23.40;99.90;;;;;;5005195;28;20122;-73
2022/08/29 03:22:20;;;;;;;5.13;2.45;;;23.50;99.90;;;;;;4989617;28;20070;-73
2022/08/29 03:24:46;;;;;;;7.30;3.05;;;23.60;99.90;;;;;;5002607;28;20057;-73
2022/08/29 03:27:12;;;;;;;7.93;2.80;;;23.60;99.90;;;;;;5004313;28;20057;-73
2022/08/29 03:29:38;;;;;;;9.05;3.20;;;23.60;99.90;;;;;;5004255;28;20056;-73
2022/08/29 03:32:04;;;;;;;8.25;3.17;;;23.60;99.90;;;;;;5001920;28;20058;-74
2022/08/29 03:34:31;;;;;;;5.20;2.75;;;23.60;99.90;;;;;;4983419;28;20038;-73
2022/08/29 03:36:57;;;;;;;4.22;2.63;;;23.60;99.90;;;;;;5001872;28;20041;-73
2022/08/29 03:39:24;;;;;;;5.13;2.60;;;23.60;99.90;;;;;;4986226;28;20450;-73
2022/08/29 03:41:50;;;;;;;5.68;2.70;;;23.60;99.90;;;;;;4994663;28;20037;-74
2022/08/29 03:44:16;;;;;;;7.60;2.75;;;23.60;99.90;;;;;;5002580;28;20042;-73
2022/08/29 03:46:41;;;;;;;3.95;2.58;;;23.60;99.90;;;;;;4991460;28;20034;-73
2022/08/29 03:49:08;;;;;;;6.35;2.50;;;23.50;99.90;;;;;;5002133;28;20449;-74
2022/08/29 03:51:35;;;;;;;5.55;2.40;;;23.50;99.90;;;;;;5002942;28;20034;-73
2022/08/29 03:54:01;;;;;;;6.70;2.97;;;23.50;99.90;;;;;;5003308;28;20560;-74
2022/08/29 03:56:27;;;;;;;4.20;2.60;;;23.50;99.90;;;;;;5002733;28;20062;-73
2022/08/29 03:58:54;;;;;;;8.48;3.33;;;23.60;99.90;;;;;;5002688;28;20041;-73
2022/08/29 04:01:23;;;;;;;4.18;2.65;;;23.50;99.90;;;;;;4983324;28;20548;-73
2022/08/29 04:03:50;;;;;;;6.25;3.13;;;23.40;99.90;;;;;;5002432;28;20033;-73
2022/08/29 04:06:15;;;;;;;4.65;2.80;;;23.40;99.90;;;;;;4997938;28;20031;-73
2022/08/29 04:08:42;;;;;;;7.07;3.22;;;23.60;99.90;;;;;;5002997;28;20034;-73
2022/08/29 04:11:13;;;;;;;6.93;3.78;;;23.60;99.90;;;;;;5003595;28;20109;-74
2022/08/29 04:13:40;;;;;;;5.78;3.40;;;23.60;99.90;;;;;;4984346;28;20033;-72
2022/08/29 04:16:10;;;;;;;9.68;3.55;;;23.50;99.90;;;;;;5002106;28;20030;-73
2022/08/29 04:18:37;;;;;;;5.78;3.53;;;23.60;99.90;;;;;;5004513;28;20026;-73
2022/08/29 04:21:03;;;;;;;4.80;3.65;;;23.60;99.90;;;;;;4982889;28;20107;-73
2022/08/29 04:23:29;;;;;;;4.80;3.22;;;23.60;99.90;;;;;;5001233;28;20038;-73
2022/08/29 04:25:55;;;;;;;7.82;3.80;;;23.60;99.90;;;;;;4983670;28;20050;-73
2022/08/29 04:28:22;;;;;;;6.50;3.30;;;23.60;99.90;;;;;;4988635;28;20093;-73
2022/08/29 04:30:50;;;;;;;5.93;3.78;;;23.70;99.90;;;;;;5000728;28;20114;-73
2022/08/29 04:33:16;;;;;;;6.00;3.40;;;23.70;99.90;;;;;;4997140;28;20042;-73
2022/08/29 04:35:42;;;;;;;6.05;3.45;;;23.90;99.90;;;;;;5003507;28;20076;-73
2022/08/29 04:38:08;;;;;;;5.93;4.05;;;23.90;99.90;;;;;;4982841;28;20160;-73
2022/08/29 04:40:35;;;;;;;6.57;3.67;;;23.70;99.90;;;;;;4983683;28;20156;-73
2022/08/29 04:43:01;;;;;;;5.97;3.80;;;23.80;99.90;;;;;;5004738;28;20042;-74
2022/08/29 04:45:27;;;;;;;8.55;3.88;;;23.70;99.90;;;;;;4999419;28;20040;-73
2022/08/29 04:47:53;;;;;;;7.00;3.53;;;23.70;99.90;;;;;;5004942;28;20052;-73
2022/08/29 04:50:22;;;;;;;7.43;4.07;;;23.80;99.90;;;;;;5001936;28;20031;-73
2022/08/29 04:52:51;;;;;;;4.70;3.30;;;23.80;99.90;;;;;;4986245;28;20377;-74
2022/08/29 04:55:19;;;;;;;6.05;3.33;;;23.80;99.90;;;;;;4984178;28;20042;-74
2022/08/29 04:57:45;;;;;;;7.40;3.72;;;23.80;99.90;;;;;;4998125;28;20034;-74
2022/08/29 05:00:15;;;;;;;6.93;3.50;;;23.70;99.90;;;;;;5003842;28;20057;-73
2022/08/29 05:02:42;;;;;;;6.88;3.47;;;23.70;99.90;;;;;;4988273;28;21032;-73
2022/08/29 05:05:11;;;;;;;5.88;3.38;;;23.70;99.90;;;;;;5001206;28;20033;-73
2022/08/29 05:07:37;;;;;;;5.05;3.60;;;23.60;99.90;;;;;;5002894;28;20124;-74
2022/08/29 05:10:09;;;;;;;6.18;3.20;;;23.60;99.90;;;;;;5003498;28;20386;-73
2022/08/29 05:12:36;;;;;;;6.68;3.70;;;23.70;99.90;;;;;;4989721;28;20107;-74
2022/08/29 05:15:04;;;;;;;8.90;4.00;;;23.60;99.90;;;;;;5004049;28;20046;-74
2022/08/29 05:17:30;;;;;;;7.80;3.67;;;23.50;99.90;;;;;;5002355;28;20044;-73
2022/08/29 05:19:56;;;;;;;4.93;3.42;;;23.40;99.90;;;;;;5000318;28;20034;-74
2022/08/29 05:22:22;;;;;;;7.38;3.97;;;23.60;99.90;;;;;;5000701;28;20041;-73
2022/08/29 05:24:49;;;;;;;5.78;3.63;;;23.70;99.90;;;;;;5001280;28;20954;-74
2022/08/29 05:27:21;;;;;;;5.88;3.42;;;23.60;99.90;;;;;;5000212;28;20038;-74
2022/08/29 05:29:47;;;;;;;;;;;23.60;99.90;;;;;;5002033;28;20038;-74
2022/08/29 05:32:14;;;;;;;6.90;3.33;;;23.70;99.90;;;;;;5000231;28;19933;-74
2022/08/29 05:34:41;;;;;;;5.53;3.28;;;23.80;99.90;;;;;;4981325;28;20061;-74
2022/08/29 05:37:17;;;;;;;4.53;2.88;;;23.80;99.90;;;;;;4989098;28;20600;-74
2022/08/29 05:39:44;;;;;;;6.15;3.25;;;23.90;99.90;;;;;;4989578;28;20034;-75
2022/08/29 05:42:11;;;;;;;5.07;3.38;;;24.00;99.90;;;;;;4999309;28;20393;-75
2022/08/29 05:44:37;;;;;;;6.68;3.55;;;23.90;99.90;;;;;;4989947;28;20474;-72
2022/08/29 05:47:05;;;;;;;6.70;3.60;;;23.90;99.90;;;;;;4988672;28;20041;-73
2022/08/29 05:49:31;;;;;;;6.50;3.63;;;24.00;99.90;;;;;;4983905;28;20038;-74
2022/08/29 05:51:59;;;;;;;5.88;3.17;;;23.90;99.90;;;;;;5003690;28;20517;-73
2022/08/29 05:54:25;;;;;;;7.40;3.45;;;23.90;99.90;;;;;;5001008;28;20109;-74
2022/08/29 05:56:51;;;;;;;5.20;3.40;;;24.10;99.90;;;;;;4998980;28;20121;-73
2022/08/29 05:59:18;;;;;;;6.20;3.67;;;24.20;99.90;;;;;;4998884;28;20165;-74
2022/08/29 06:01:47;;;;;;;6.90;3.95;;;24.20;99.90;;;;;;4981092;28;20031;-75
2022/08/29 06:04:13;;;;;;;7.00;4.25;;;24.20;99.90;;;;;;4989029;28;20485;-76
2022/08/29 06:06:40;;;;;;;7.45;3.97;;;24.30;99.90;;;;;;4999057;28;20030;-74
2022/08/29 06:09:06;;;;;;;5.93;3.90;;;24.30;99.90;;;;;;4989462;28;20056;-75
2022/08/29 06:11:32;;;;;;;6.43;3.67;;;24.40;99.90;;;;;;4985623;28;20446;-75
2022/08/29 06:13:59;;;;;;;5.50;3.60;;;24.50;99.90;;;;;;5001763;28;20037;-74
2022/08/29 06:16:27;;;;;;;4.68;3.38;;;24.50;99.90;;;;;;5000399;28;20046;-74
2022/08/29 06:18:53;;;;;;;5.88;3.53;;;24.60;99.90;;;;;;5001518;28;20030;-74
2022/08/29 06:21:19;;;;;;;4.55;3.58;;;24.60;99.90;;;;;;5003993;28;20038;-75
2022/08/29 06:23:46;;;;;;;6.13;3.83;;;24.60;99.90;;;;;;4984451;28;20058;-74
2022/08/29 06:26:13;;;;;;;5.90;3.70;;;24.70;99.90;;;;;;4983277;28;20446;-75
2022/08/29 06:28:44;;;;;;;6.22;3.53;;;24.70;99.90;;;;;;4987644;28;20058;-74
2022/08/29 06:31:26;;;;;;;6.00;3.90;;;24.70;99.90;;;;;;4984262;28;20032;-75
2022/08/29 06:33:58;;;;;;;5.15;3.95;;;24.80;99.90;;;;;;4990840;28;20128;-74
2022/08/29 06:36:26;;;;;;;6.10;4.03;;;24.90;99.90;;;;;;4982036;28;20478;-73
2022/08/29 06:38:55;;;;;;;7.20;3.78;;;24.90;99.90;;;;;;5001174;28;20161;-74
2022/08/29 06:41:21;;;;;;;10.07;4.70;;;25.00;99.90;;;;;;4994939;28;20040;-73
2022/08/29 06:43:47;;;;;;;7.82;3.83;;;25.00;99.90;;;;;;4988134;28;20030;-75
2022/08/29 06:46:40;;;;;;;7.05;4.47;;;25.10;99.90;;;;;;5009644;28;20040;-74
2022/08/29 06:49:09;;;;;;;6.03;4.90;;;25.20;99.90;;;;;;5004749;28;20102;-74
2022/08/29 06:51:41;;;;;;;6.20;4.50;;;25.20;99.90;;;;;;5002120;28;20029;-74
2022/08/29 06:54:09;;;;;;;7.93;4.88;;;25.20;99.90;;;;;;5005113;28;20037;-74
2022/08/29 06:56:35;;;;;;;7.43;5.07;;;25.30;99.90;;;;;;4989567;28;20192;-74
2022/08/29 06:59:01;;;;;;;10.73;4.85;;;25.30;99.90;;;;;;4990711;28;20720;-73
2022/08/29 07:01:27;;;;;;;5.25;4.40;;;25.40;99.90;;;;;;5003596;28;20058;-74
2022/08/29 07:03:55;;;;;;;5.85;3.65;;;25.50;99.90;;;;;;4996076;28;20115;-75
2022/08/29 07:06:22;;;;;;;6.85;3.55;;;25.50;99.90;;;;;;4992399;28;20037;-74
2022/08/29 07:08:48;;;;;;;6.75;3.47;;;25.60;99.90;;;;;;4991874;28;20752;-74
2022/08/29 07:11:14;;;;;;;5.43;3.30;;;25.70;99.90;;;;;;5007389;28;20041;-73
2022/08/29 07:13:40;;;;;;;6.50;3.60;;;25.80;99.90;;;;;;4989565;28;20030;-74
2022/08/29 07:16:08;;;;;;;8.57;3.28;;;25.90;99.90;;;;;;5005177;28;20206;-73
2022/08/29 07:18:34;;;;;;;6.30;2.60;;;25.90;99.90;;;;;;5004571;28;20030;-73
2022/08/29 07:21:05;;;;;;;5.93;3.05;;;26.00;99.90;;;;;;5009012;28;20034;-75
2022/08/29 07:23:30;;;;;;;4.72;2.10;;;26.10;99.90;;;;;;5004207;28;20038;-74
2022/08/29 07:26:08;;;;;;;4.25;2.50;;;26.10;99.90;;;;;;5008240;28;20575;-73
2022/08/29 07:28:35;;;;;;;5.15;2.55;;;26.30;99.90;;;;;;4986985;28;20138;-74
2022/08/29 07:31:01;;;;;;;4.22;2.30;;;26.40;99.90;;;;;;4995004;28;20141;-73
2022/08/29 07:33:27;;;;;;;5.93;3.00;;;26.40;99.90;;;;;;4987206;28;20030;-73
2022/08/29 07:35:53;;;;;;;6.22;3.17;;;26.40;99.90;;;;;;5000209;28;20468;-74
2022/08/29 07:38:20;;;;;;;4.10;2.95;;;26.40;99.90;;;;;;5005819;28;20066;-74
2022/08/29 07:40:46;;;;;;;4.07;2.72;;;26.50;99.90;;;;;;4990436;28;20033;-73
2022/08/29 07:43:12;;;;;;;5.20;3.22;;;26.50;99.90;;;;;;4995082;28;20113;-74
2022/08/29 07:45:38;;;;;;;5.00;2.75;;;26.60;99.90;;;;;;5005339;28;20112;-74
2022/08/29 07:48:04;;;;;;;3.55;2.60;;;26.70;99.90;;;;;;5002099;28;20027;-73
2022/08/29 07:50:30;;;;;;;5.13;2.95;;;26.70;99.90;;;;;;5007606;28;20508;-74
2022/08/29 07:52:56;;;;;;;4.18;2.75;;;26.80;99.90;;;;;;4985922;28;20158;-74
2022/08/29 07:55:22;;;;;;;5.75;2.50;;;26.90;99.90;;;;;;5002413;28;20034;-74
2022/08/29 07:57:51;;;;;;;6.15;2.53;;;27.00;99.90;;;;;;4999546;28;20041;-74
2022/08/29 08:00:18;;;;;;;4.40;1.90;;;27.10;99.90;;;;;;5004303;28;20038;-74
2022/08/29 08:02:44;;;;;;;6.65;2.05;;;27.40;99.90;;;;;;5002926;28;20033;-74
2022/08/29 08:05:09;;;;;;;3.00;1.80;;;27.60;99.90;;;;;;5004495;28;20038;-74
2022/08/29 08:07:35;;;;;;;4.75;1.85;;;27.80;99.90;;;;;;4992712;28;20038;-73
2022/08/29 08:10:02;;;;;;;3.65;2.10;;;27.80;99.90;;;;;;5002663;28;20179;-74
2022/08/29 08:12:28;;;;;;;3.10;2.00;;;27.90;99.90;;;;;;5003771;28;20042;-73
2022/08/29 08:14:55;;;;;;;3.50;1.75;;;27.90;99.90;;;;;;5002711;28;20034;-72
2022/08/29 08:17:22;;;;;;;4.57;2.08;;;28.00;99.90;;;;;;4988582;28;20453;-71
2022/08/29 08:19:48;;;;;;;2.85;1.60;;;28.10;99.90;;;;;;5003266;28;20793;-70
2022/08/29 08:22:14;;;;;;;6.43;2.35;;;28.20;99.90;;;;;;5001150;28;20031;-72
2022/08/29 08:24:39;;;;;;;3.53;1.70;;;28.20;99.90;;;;;;4992504;28;20050;-71
2022/08/29 08:27:06;;;;;;;4.82;1.90;;;28.30;99.90;;;;;;4987648;28;20477;-70
2022/08/29 08:29:32;;;;;;;5.97;1.52;;;28.40;99.90;;;;;;5001415;28;20038;-71
2022/08/29 08:31:58;;;;;;;7.10;1.95;;;28.60;99.90;;;;;;4992272;28;20491;-71
2022/08/29 08:34:26;;;;;;;7.35;2.38;;;28.80;99.90;;;;;;4982564;28;20034;-70
2022/08/29 08:36:51;;;;;;;5.47;2.22;;;28.80;99.90;;;;;;5001692;28;20046;-71
2022/08/29 08:39:17;;;;;;;3.33;1.92;;;28.90;99.90;;;;;;5001573;28;20042;-71
2022/08/29 08:41:51;;;;;;;4.07;1.88;;;29.00;99.90;;;;;;5002903;28;20407;-71
2022/08/29 08:44:25;;;;;;;6.38;2.10;;;29.10;99.90;;;;;;5004652;28;20492;-71
2022/08/29 08:46:57;;;;;;;4.60;2.10;;;29.10;99.90;;;;;;4986028;28;20026;-71
2022/08/29 08:49:52;;;;;;;3.35;1.83;;;29.40;99.90;;;;;;4983347;28;20038;-70
2022/08/29 08:52:26;;;;;;;5.68;2.17;;;29.60;99.90;;;;;;4988338;28;20604;-70
2022/08/29 08:55:01;;;;;;;3.10;1.70;;;29.70;99.90;;;;;;4998898;28;20355;-69
2022/08/29 08:57:38;;;;;;;5.82;1.70;;;29.80;99.90;;;;;;4968429;28;20041;-70
2022/08/29 09:00:06;;;;;;;3.65;1.60;;;29.90;99.90;;;;;;4998042;28;20042;-71
2022/08/29 09:02:41;;;;;;;11.63;2.20;;;30.30;99.70;;;;;;4999631;28;20075;-71
2022/08/29 09:05:26;;;;;;;4.07;1.48;;;30.40;99.50;;;;;;4995165;28;22386;-70
2022/08/29 09:08:13;;;;;;;4.63;1.55;;;30.50;98.80;;;;;;4980819;28;20681;-71
2022/08/29 09:11:23;;;;;;;3.95;1.38;;;30.30;98.40;;;;;;4979483;28;20065;-71
2022/08/29 09:13:58;;;;;;;3.78;1.52;;;30.50;98.00;;;;;;4911021;28;20044;-71
2022/08/29 09:16:41;;;;;;;6.55;2.00;;;30.50;99.20;;;;;;4997139;28;20042;-71
2022/08/29 09:19:09;;;;;;;2.65;1.48;;;30.50;99.30;;;;;;4998017;28;20375;-71
2022/08/29 09:21:45;;;;;;;7.03;1.77;;;30.30;99.30;;;;;;4979467;28;20042;-71
2022/08/29 09:24:37;;;;;;;7.65;2.10;;;30.10;99.90;;;;;;4997463;28;20062;-71
2022/08/29 09:27:05;;;;;;;6.15;1.50;;;30.00;99.90;;;;;;4996552;28;20066;-70
2022/08/29 09:29:31;;;;;;;5.55;2.10;;;30.10;99.90;;;;;;4998209;28;20479;-70
2022/08/29 09:32:10;;;;;;;12.55;4.38;;;30.20;99.90;;;;;;4992081;28;20045;-71
2022/08/29 09:34:43;;;;;;;7.60;2.60;;;30.00;99.90;;;;;;4977858;28;20373;-71
2022/08/29 09:37:35;;;;;;;6.38;3.15;;;29.90;99.90;;;;;;4998385;28;20769;-71
2022/08/29 09:40:11;;;;;;;9.27;3.00;;;29.50;99.90;;;;;;4978825;28;20137;-71
2022/08/29 09:42:44;;;;;;;6.22;3.00;;;29.00;99.90;;;;;;4996398;28;20045;-71
2022/08/29 09:45:22;;;;;;;7.72;2.70;;;28.50;99.90;;;;;;4993869;28;20119;-71
2022/08/29 09:47:48;;;;;;;12.55;3.70;;;28.60;99.90;;;;;;4999896;28;20100;-71
2022/08/29 09:50:17;;;;;;;14.85;3.40;;;28.60;99.90;;;;;;4995792;28;20050;-70
2022/08/29 09:52:51;;;;;;;8.23;2.85;;;28.60;99.90;;;;;;4999258;28;20054;-71
2022/08/29 09:55:22;;;;;;;5.03;2.03;;;28.40;99.90;;;;;;4995875;28;20042;-71
2022/08/29 09:57:52;;;;;;;7.50;2.20;;;28.30;99.90;;;;;;4982772;28;20473;-70
2022/08/29 10:00:25;;;;;;;6.20;2.13;;;28.40;99.90;;;;;;4995354;28;20038;-69
2022/08/29 10:02:55;;;;;;;4.30;2.00;;;28.40;99.90;;;;;;4997219;28;20056;-71
2022/08/29 10:05:49;;;;;;;5.50;1.80;;;28.40;99.90;;;;;;4996711;28;20405;-71
2022/08/29 10:08:35;;;;;;;4.40;2.05;;;28.30;99.90;;;;;;4997420;28;20038;-71
2022/08/29 10:11:18;;;;;;;7.53;1.88;;;28.40;99.90;;;;;;4980245;28;20042;-71
2022/08/29 10:13:54;;;;;;;9.45;2.10;;;28.70;99.90;;;;;;4998433;28;20053;-71
2022/08/29 10:16:27;;;;;;;7.43;2.03;;;28.60;99.90;;;;;;4995988;28;20049;-71
2022/08/29 10:19:03;;;;;;;5.80;2.10;;;28.80;99.90;;;;;;4980968;28;20038;-72
2022/08/29 10:21:32;;;;;;;6.18;2.15;;;28.90;99.90;;;;;;4987873;28;20053;-72
2022/08/29 10:24:16;;;;;;;8.48;1.98;;;29.00;99.90;;;;;;4995854;28;20034;-71
2022/08/29 10:26:51;;;;;;;6.25;2.30;;;29.00;99.90;;;;;;4981824;28;20109;-72
2022/08/29 10:29:35;;;;;;;5.93;1.92;;;29.10;99.90;;;;;;4996948;28;20057;-71
2022/08/29 10:32:25;;;;;;;6.22;1.98;;;28.90;99.90;;;;;;5004624;28;20046;-71
2022/08/29 10:35:03;;;;;;;4.45;1.90;;;29.00;99.90;;;;;;5004295;28;20037;-71
2022/08/29 10:38:17;;;;;;;4.03;1.95;;;29.20;99.90;;;;;;4997731;28;20521;-71
2022/08/29 10:40:51;;;;;;;5.13;1.75;;;29.50;99.90;;;;;;4958075;28;20074;-71
2022/08/29 10:43:39;;;;;;;4.45;1.30;;;29.60;99.90;;;;;;5000437;28;20049;-70
2022/08/29 10:46:42;;;;;;;7.38;1.52;;;29.50;99.90;;;;;;4997784;28;20414;-71
2022/08/29 10:49:23;;;;;;;5.15;1.95;;;29.50;99.90;;;;;;4995597;28;20069;-71
2022/08/29 10:52:07;;;;;;;6.50;1.85;;;29.70;99.90;;;;;;4998491;28;20046;-72
2022/08/29 10:54:58;;;;;;;5.05;1.60;;;29.70;99.90;;;;;;4998224;28;20108;-71
2022/08/29 10:57:46;;;;;;;4.32;1.55;;;29.60;99.90;;;;;;4976157;28;20046;-72
2022/08/29 11:00:19;;;;;;;5.15;1.40;;;29.70;99.90;;;;;;4993865;28;20076;-71
2022/08/29 11:03:21;;;;;;;5.38;1.50;;;29.70;99.90;;;;;;4994275;28;21245;-71
2022/08/29 11:06:05;;;;;;;6.82;1.80;;;29.70;99.90;;;;;;4992882;28;20038;-72
2022/08/29 11:08:38;;;;;;;6.80;1.40;;;29.70;99.90;;;;;;4994310;28;21058;-72
2022/08/29 11:11:04;;;;;;;4.40;1.60;;;29.50;99.90;;;;;;4995663;28;20052;-71
2022/08/29 11:13:37;;;;;;;4.57;1.60;;;29.20;99.90;;;;;;4995771;28;20493;-71
2022/08/29 11:16:26;;;;;;;6.13;1.40;;;29.20;99.90;;;;;;4996535;28;20061;-71
2022/08/29 11:19:11;;;;;;;3.38;1.45;;;29.10;99.90;;;;;;4979513;28;20034;-71
2022/08/29 11:21:51;;;;;;;5.68;1.40;;;29.00;99.90;;;;;;4996168;28;20042;-71
2022/08/29 11:24:19;;;;;;;4.97;1.63;;;29.10;99.90;;;;;;4993700;28;21228;-71
2022/08/29 11:26:54;;;;;;;5.30;1.40;;;29.20;99.90;;;;;;4996247;28;20262;-72
2022/08/29 11:29:44;;;;;;;7.68;1.85;;;29.30;99.90;;;;;;4995921;28;20069;-71
2022/08/29 11:32:49;;;;;;;3.28;1.60;;;29.30;99.90;;;;;;4979548;28;20030;-70
2022/08/29 11:35:23;;;;;;;6.53;1.73;;;29.50;99.90;;;;;;4999241;28;20056;-71
2022/08/29 11:38:13;;;;;;;6.80;2.28;;;29.50;99.90;;;;;;5005492;28;20443;-72
2022/08/29 11:40:48;;;;;;;5.95;1.80;;;29.70;99.90;;;;;;5001911;28;20038;-72
2022/08/29 11:43:23;;;;;;;6.55;1.83;;;30.00;99.90;;;;;;4998665;28;20107;-72
2022/08/29 11:46:04;;;;;;;3.72;1.70;;;30.30;99.90;;;;;;4991212;28;20474;-73
2022/08/29 11:48:51;;;;;;;7.67;1.90;;;30.60;99.90;;;;;;4995488;28;20050;-71
2022/08/29 11:51:29;;;;;;;4.82;1.77;;;31.00;99.90;;;;;;4994689;28;20046;-72
2022/08/29 11:54:15;;;;;;;5.50;1.80;;;30.80;99.30;;;;;;4993709;28;20045;-70
2022/08/29 11:56:41;;;;;;;8.98;1.90;;;31.00;99.20;;;;;;4995889;28;20041;-72
2022/08/29 11:59:07;;;;;;;4.30;1.90;;;31.40;98.70;;;;;;4983022;28;20039;-71
2022/08/29 12:01:36;;;;;;;5.25;1.98;;;31.80;98.20;;;;;;4981233;28;20034;-72
2022/08/29 12:04:07;;;;;;;4.90;2.00;;;33.20;96.60;;;;;;4995999;28;20038;-70
2022/08/29 12:06:36;;;;;;;6.32;1.67;;;33.00;96.30;;;;;;4981583;28;20359;-71
2022/08/29 12:09:11;;;;;;;4.68;1.60;;;33.40;95.70;;;;;;4983395;28;20103;-70
2022/08/29 12:12:07;;;;;;;6.53;2.08;;;33.10;97.40;;;;;;4994726;28;20113;-72
2022/08/29 12:14:41;;;;;;;8.77;2.83;;;33.00;97.90;;;;;;4996370;28;20457;-71
2022/08/29 12:17:29;;;;;;;6.53;2.60;;;33.20;99.90;;;;;;4992844;28;20052;-71
2022/08/29 12:19:55;;;;;;;7.47;2.65;;;32.60;99.90;;;;;;4988454;28;20140;-71
2022/08/29 12:22:59;;;;;;;6.53;2.88;;;32.20;99.90;;;;;;4995018;28;20076;-71
2022/08/29 12:25:53;;;;;;;5.35;2.70;;;31.40;99.90;;;;;;4992758;28;20045;-71
2022/08/29 12:28:57;;;;;;;6.25;2.80;;;31.50;99.90;;;;;;4980837;28;20052;-71
2022/08/29 12:31:28;;;;;;;12.68;6.35;;;32.30;99.90;;;;;;4956847;28;20224;-71
2022/08/29 12:34:00;;;;;;;;;;;31.50;99.90;;;;;;4995015;28;20038;-71
2022/08/29 12:36:44;;;;;;;;;;;32.40;99.90;;;;;;4995539;28;20349;-72
2022/08/29 12:39:12;;;;;;;18.27;15.43;;;32.50;99.90;;;;;;4993767;28;20031;-71
2022/08/29 12:41:58;;;;;;;19.55;13.23;;;31.60;99.90;;;;;;4996171;28;20038;-71
2022/08/29 12:44:31;;;;;;;17.05;11.32;;;31.60;99.90;;;;;;4995253;28;20928;-71
2022/08/29 12:47:06;;;;;;;13.05;9.00;;;32.50;99.90;;;;;;4997156;28;20045;-70
2022/08/29 12:49:47;;;;;;;22.90;15.90;;;31.20;99.90;;;;;;4994237;28;20897;-71
2022/08/29 12:52:22;;;;;;;16.92;12.27;;;31.40;99.90;;;;;;4975109;28;20045;-72
2022/08/29 12:54:48;;;;;;;12.90;10.07;;;31.00;99.90;;;;;;4998754;28;20046;-72
2022/08/29 12:57:30;;;;;;;18.02;11.38;;;31.50;99.90;;;;;;4974403;28;20558;-71
2022/08/29 12:59:57;;;;;;;15.95;11.13;;;31.50;99.90;;;;;;4995249;28;20362;-70
2022/08/29 13:02:35;;;;;;;13.60;9.80;;;31.30;99.90;;;;;;4975374;28;20133;-71
2022/08/29 13:05:16;;;;;;;18.05;11.25;;;31.70;99.90;;;;;;4992738;28;20048;-72
2022/08/29 13:07:55;;;;;;;13.45;8.63;;;31.60;99.90;;;;;;4954094;28;20038;-71
2022/08/29 13:10:21;;;;;;;10.82;7.32;;;31.10;99.90;;;;;;4959880;28;20069;-70